Time;durP1;ratioP1;P1;durP2;ratioP2;P2;SDS_P1;SDS_P2;PMS_P1;PMS_P2;Temp;Humidity;BMP_temperature;BMP_pressure;BME280_temperature;BME280_humidity;BME280_pressure;Samples;Min_cycle;Max_cycle;Signal;HPM_P1;HPM_P2
2022/02/16 00:01:58;;;;;;;;;;;;;;;;;;2211508;59;1087;-72
2022/02/16 00:04:31;;;;;;;;;;;;;;;;;;2211177;67;1132;-72
2022/02/16 00:07:04;;;;;;;;;;;;;;;;;;2211026;59;1955;-72
2022/02/16 00:09:38;;;;;;;;;;;;;;;;;;2211075;67;1183;-72
2022/02/16 00:12:11;;;;;;;;;;;;;;;;;;2210892;59;1349;-73
2022/02/16 00:14:47;;;;;;;;;;;;;;;;;;2210480;59;1229;-72
2022/02/16 00:17:20;;;;;;;;;;;;;;;;;;2210559;59;1547;-72
2022/02/16 00:19:53;;;;;;;;;;;;;;;;;;2210410;59;1844;-72
2022/02/16 00:22:26;;;;;;;;;;;;;;;;;;2210815;59;2100;-72
2022/02/16 00:24:59;;;;;;;;;;;;;;;;;;2211235;59;1199;-72
2022/02/16 00:27:32;;;;;;;;;;;;;;;;;;2210556;59;1990;-72
2022/02/16 00:30:10;;;;;;;;;;;;;;;;;;2210007;59;1228;-72
2022/02/16 00:32:43;;;;;;;;;;;;;;;;;;2210513;59;1408;-72
2022/02/16 00:35:16;;;;;;;;;;;;;;;;;;2210989;59;1260;-72
2022/02/16 00:37:51;;;;;;;;;;;;;;;;;;2210927;59;1232;-72
2022/02/16 00:40:24;;;;;;;;;;;;;;;;;;2210788;59;1277;-72
2022/02/16 00:42:57;;;;;;;;;;;;;;;;;;2210597;59;1899;-72
2022/02/16 00:45:33;;;;;;;;;;;;;;;;;;2209764;59;1445;-72
2022/02/16 00:48:07;;;;;;;;;;;;;;;;;;2210246;59;1918;-72
2022/02/16 00:50:40;;;;;;;;;;;;;;;;;;2210569;67;1055;-72
2022/02/16 00:53:13;;;;;;;;;;;;;;;;;;2210655;67;1121;-72
2022/02/16 00:55:47;;;;;;;;;;;;;;;;;;2210791;59;1192;-72
2022/02/16 00:58:20;;;;;;;;;;;;;;;;;;2210841;67;1245;-72
2022/02/16 01:00:56;;;;;;;;;;;;;;;;;;2211007;59;1220;-72
2022/02/16 01:03:29;;;;;;;;;;;;;;;;;;2210658;59;1144;-72
2022/02/16 01:06:02;;;;;;;;;;;;;;;;;;2210988;59;1203;-72
2022/02/16 01:08:35;;;;;;;;;;;;;;;;;;2210104;59;2012;-72
2022/02/16 01:11:08;;;;;;;;;;;;;;;;;;2210546;59;1241;-72
2022/02/16 01:13:41;;;;;;;;;;;;;;;;;;2210510;67;1100;-72
2022/02/16 01:16:17;;;;;;;;;;;;;;;;;;2210343;59;1296;-72
2022/02/16 01:18:51;;;;;;;;;;;;;;;;;;2210966;67;1093;-72
2022/02/16 01:21:24;;;;;;;;;;;;;;;;;;2210601;59;1425;-72
2022/02/16 01:23:57;;;;;;;;;;;;;;;;;;2211053;67;1262;-72
2022/02/16 01:26:30;;;;;;;;;;;;;;;;;;2210852;59;1709;-72
2022/02/16 01:29:04;;;;;;;;;;;;;;;;;;2210383;67;1937;-72
2022/02/16 01:31:39;;;;;;;;;;;;;;;;;;2210290;59;1215;-72
2022/02/16 01:34:13;;;;;;;;;;;;;;;;;;2211206;67;1145;-72
2022/02/16 01:36:46;;;;;;;;;;;;;;;;;;2210926;67;1201;-72
2022/02/16 01:39:19;;;;;;;;;;;;;;;;;;2211017;67;1140;-72
2022/02/16 01:41:53;;;;;;;;;;;;;;;;;;2210862;59;1129;-72
2022/02/16 01:44:27;;;;;;;;;;;;;;;;;;2210817;59;1443;-72
2022/02/16 01:47:06;;;;;;;;;;;;;;;;;;2209997;59;1617;-72
2022/02/16 01:49:40;;;;;;;;;;;;;;;;;;2210478;59;1933;-72
2022/02/16 01:52:14;;;;;;;;;;;;;;;;;;2210066;59;1202;-72
2022/02/16 01:54:47;;;;;;;;;;;;;;;;;;2210520;59;1225;-72
2022/02/16 01:57:20;;;;;;;;;;;;;;;;;;2210846;59;1126;-72
2022/02/16 01:59:55;;;;;;;;;;;;;;;;;;2210690;59;1243;-72
2022/02/16 02:02:31;;;;;;;;;;;;;;;;;;2210750;67;1164;-72
2022/02/16 02:05:04;;;;;;;;;;;;;;;;;;2210770;67;1222;-72
2022/02/16 02:07:40;;;;;;;;;;;;;;;;;;2209584;59;1751;-72
2022/02/16 02:10:13;;;;;;;;;;;;;;;;;;2210468;59;1197;-72
2022/02/16 02:12:46;;;;;;;;;;;;;;;;;;2210331;59;1099;-72
2022/02/16 02:15:22;;;;;;;;;;;;;;;;;;2209823;59;1328;-72
2022/02/16 02:17:59;;;;;;;;;;;;;;;;;;2209865;59;1739;-72
2022/02/16 02:20:40;;;;;;;;;;;;;;;;;;2210796;59;1621;-72
2022/02/16 02:23:13;;;;;;;;;;;;;;;;;;2210239;59;1211;-72
2022/02/16 02:25:47;;;;;;;;;;;;;;;;;;2210596;67;1115;-72
2022/02/16 02:28:22;;;;;;;;;;;;;;;;;;2209674;59;1936;-72
2022/02/16 02:30:56;;;;;;;;;;;;;;;;;;2210350;67;1034;-72
2022/02/16 02:33:29;;;;;;;;;;;;;;;;;;2209693;59;1229;-72
2022/02/16 02:36:05;;;;;;;;;;;;;;;;;;2210843;59;1127;-72
2022/02/16 02:38:38;;;;;;;;;;;;;;;;;;2209755;67;1173;-72
2022/02/16 02:41:11;;;;;;;;;;;;;;;;;;2210814;59;1282;-72
2022/02/16 02:43:46;;;;;;;;;;;;;;;;;;2210299;59;1423;-73
2022/02/16 02:46:20;;;;;;;;;;;;;;;;;;2210346;59;1508;-72
2022/02/16 02:48:55;;;;;;;;;;;;;;;;;;2210105;59;1923;-72
2022/02/16 02:51:31;;;;;;;;;;;;;;;;;;2210654;59;1248;-72
2022/02/16 02:54:04;;;;;;;;;;;;;;;;;;2210490;59;1189;-72
2022/02/16 02:56:37;;;;;;;;;;;;;;;;;;2209958;67;1288;-72
2022/02/16 02:59:10;;;;;;;;;;;;;;;;;;2210689;67;1198;-73
2022/02/16 03:01:43;;;;;;;;;;;;;;;;;;2210808;67;1071;-72
2022/02/16 03:04:17;;;;;;;;;;;;;;;;;;2210529;67;1253;-72
2022/02/16 03:06:52;;;;;;;;;;;;;;;;;;2210428;59;1622;-72
2022/02/16 03:09:26;;;;;;;;;;;;;;;;;;2210335;59;1937;-72
2022/02/16 03:11:59;;;;;;;;;;;;;;;;;;2210278;59;1288;-72
2022/02/16 03:14:32;;;;;;;;;;;;;;;;;;2210261;59;1297;-72
2022/02/16 03:17:05;;;;;;;;;;;;;;;;;;2210619;59;1253;-72
2022/02/16 03:19:39;;;;;;;;;;;;;;;;;;2209878;67;1148;-72
2022/02/16 03:22:14;;;;;;;;;;;;;;;;;;2210773;59;1566;-72
2022/02/16 03:24:47;;;;;;;;;;;;;;;;;;2210630;59;1233;-72
2022/02/16 03:27:20;;;;;;;;;;;;;;;;;;2210565;59;1531;-72
2022/02/16 03:29:54;;;;;;;;;;;;;;;;;;2210110;67;1976;-72
2022/02/16 03:32:27;;;;;;;;;;;;;;;;;;2211234;67;1110;-72
2022/02/16 03:35:00;;;;;;;;;;;;;;;;;;2210467;59;2288;-72
2022/02/16 03:37:36;;;;;;;;;;;;;;;;;;2211193;67;1155;-72
2022/02/16 03:40:10;;;;;;;;;;;;;;;;;;2211259;59;1146;-72
2022/02/16 03:42:43;;;;;;;;;;;;;;;;;;2211158;59;1413;-72
2022/02/16 03:45:16;;;;;;;;;;;;;;;;;;2210938;59;1408;-72
2022/02/16 03:47:49;;;;;;;;;;;;;;;;;;2210075;59;1774;-72
2022/02/16 03:50:23;;;;;;;;;;;;;;;;;;2211042;59;1981;-72
2022/02/16 03:52:59;;;;;;;;;;;;;;;;;;2211188;67;1139;-72
2022/02/16 03:55:32;;;;;;;;;;;;;;;;;;2210944;59;1708;-72
2022/02/16 03:58:05;;;;;;;;;;;;;;;;;;2210481;59;1900;-73
2022/02/16 04:00:38;;;;;;;;;;;;;;;;;;2209865;59;1942;-72
2022/02/16 04:03:12;;;;;;;;;;;;;;;;;;2210631;59;1617;-72
2022/02/16 04:05:45;;;;;;;;;;;;;;;;;;2211288;59;1128;-72
2022/02/16 04:08:21;;;;;;;;;;;;;;;;;;2209694;59;1844;-72
2022/02/16 04:10:54;;;;;;;;;;;;;;;;;;2210542;59;1576;-72
2022/02/16 04:13:28;;;;;;;;;;;;;;;;;;2210880;59;1176;-72
2022/02/16 04:16:01;;;;;;;;;;;;;;;;;;2210926;59;1317;-72
2022/02/16 04:18:34;;;;;;;;;;;;;;;;;;2211178;59;1150;-72
2022/02/16 04:21:07;;;;;;;;;;;;;;;;;;2211163;59;1541;-72
2022/02/16 04:23:43;;;;;;;;;;;;;;;;;;2210936;59;1213;-72
2022/02/16 04:29:00;;;;;;;;;;;;;;;;;;2205288;59;1987;-70
2022/02/16 04:31:33;;;;;;;;;;;;;;;;;;2208826;59;1216;-70
2022/02/16 04:34:07;;;;;;;;;;;;;;;;;;2210414;59;1178;-70
2022/02/16 04:36:40;;;;;;;;;;;;;;;;;;2210388;59;1243;-70
2022/02/16 04:39:16;;;;;;;;;;;;;;;;;;2213012;67;1218;-70
2022/02/16 04:41:49;;;;;;;;;;;;;;;;;;2212412;59;1398;-70
2022/02/16 04:44:22;;;;;;;;;;;;;;;;;;2212476;59;1401;-70
2022/02/16 04:46:56;;;;;;;;;;;;;;;;;;2211155;59;1727;-70
2022/02/16 04:49:29;;;;;;;;;;;;;;;;;;2211300;59;1990;-70
2022/02/16 04:52:03;;;;;;;;;;;;;;;;;;2213445;67;1022;-70
2022/02/16 04:54:39;;;;;;;;;;;;;;;;;;2213102;59;1259;-70
2022/02/16 04:57:13;;;;;;;;;;;;;;;;;;2212821;59;1351;-70
2022/02/16 04:59:46;;;;;;;;;;;;;;;;;;2213035;67;1164;-70
2022/02/16 05:02:20;;;;;;;;;;;;;;;;;;2210707;59;1222;-70
2022/02/16 05:04:53;;;;;;;;;;;;;;;;;;2210860;67;1093;-70
2022/02/16 05:07:26;;;;;;;;;;;;;;;;;;2210426;59;1832;-70
2022/02/16 05:10:02;;;;;;;;;;;;;;;;;;2210538;59;2019;-70
2022/02/16 05:12:35;;;;;;;;;;;;;;;;;;2210443;67;1294;-70
2022/02/16 05:15:09;;;;;;;;;;;;;;;;;;2210663;59;1376;-70
2022/02/16 05:17:42;;;;;;;;;;;;;;;;;;2211141;59;1257;-70
2022/02/16 05:20:16;;;;;;;;;;;;;;;;;;2211115;59;1926;-70
2022/02/16 05:22:49;;;;;;;;;;;;;;;;;;2210381;59;1389;-70
2022/02/16 05:25:25;;;;;;;;;;;;;;;;;;2211090;59;1131;-70
2022/02/16 05:27:58;;;;;;;;;;;;;;;;;;2211754;59;2075;-70
2022/02/16 05:30:31;;;;;;;;;;;;;;;;;;2210404;67;2026;-70
2022/02/16 05:33:04;;;;;;;;;;;;;;;;;;2211733;67;1241;-70
2022/02/16 05:35:38;;;;;;;;;;;;;;;;;;2210583;59;1130;-70
2022/02/16 05:38:11;;;;;;;;;;;;;;;;;;2211440;67;1357;-70
2022/02/16 05:40:47;;;;;;;;;;;;;;;;;;2211513;59;1193;-70
2022/02/16 05:43:21;;;;;;;;;;;;;;;;;;2212186;67;1181;-70
2022/02/16 05:45:54;;;;;;;;;;;;;;;;;;2210430;59;1710;-70
2022/02/16 05:48:29;;;;;;;;;;;;;;;;;;2210045;59;1714;-70
2022/02/16 05:51:03;;;;;;;;;;;;;;;;;;2211283;67;1923;-70
2022/02/16 05:53:36;;;;;;;;;;;;;;;;;;2211597;59;1236;-70
2022/02/16 05:56:12;;;;;;;;;;;;;;;;;;2211811;59;1167;-70
2022/02/16 05:58:45;;;;;;;;;;;;;;;;;;2211498;59;1175;-70
2022/02/16 06:01:18;;;;;;;;;;;;;;;;;;2211693;59;1144;-70
2022/02/16 06:03:51;;;;;;;;;;;;;;;;;;2211199;67;1071;-70
2022/02/16 06:06:25;;;;;;;;;;;;;;;;;;2211116;67;1214;-70
2022/02/16 06:08:58;;;;;;;;;;;;;;;;;;2212287;59;1851;-70
2022/02/16 06:11:34;;;;;;;;;;;;;;;;;;2209875;59;1928;-70
2022/02/16 06:14:08;;;;;;;;;;;;;;;;;;2209827;59;1226;-70
2022/02/16 06:16:41;;;;;;;;;;;;;;;;;;2211045;59;1282;-70
2022/02/16 06:19:14;;;;;;;;;;;;;;;;;;2211706;67;1102;-70
2022/02/16 06:21:47;;;;;;;;;;;;;;;;;;2211424;59;1427;-70
2022/02/16 06:24:21;;;;;;;;;;;;;;;;;;2211276;59;1270;-70
2022/02/16 06:26:58;;;;;;;;;;;;;;;;;;2209816;59;1981;-70
2022/02/16 06:29:31;;;;;;;;;;;;;;;;;;2210900;59;1971;-70
2022/02/16 06:32:05;;;;;;;;;;;;;;;;;;2211565;67;1013;-70
2022/02/16 06:34:38;;;;;;;;;;;;;;;;;;2208900;59;1670;-70
2022/02/16 06:37:11;;;;;;;;;;;;;;;;;;2211614;67;1382;-70
2022/02/16 06:39:44;;;;;;;;;;;;;;;;;;2211220;67;1217;-70
2022/02/16 06:42:21;;;;;;;;;;;;;;;;;;2211016;59;1563;-70
2022/02/16 06:44:54;;;;;;;;;;;;;;;;;;2210232;67;1080;-70
2022/02/16 06:47:27;;;;;;;;;;;;;;;;;;2211043;59;1477;-70
2022/02/16 06:50:00;;;;;;;;;;;;;;;;;;2210526;59;1984;-70
2022/02/16 06:52:34;;;;;;;;;;;;;;;;;;2210854;67;1387;-70
2022/02/16 06:55:07;;;;;;;;;;;;;;;;;;2211581;59;1138;-70
2022/02/16 06:57:43;;;;;;;;;;;;;;;;;;2211693;67;1238;-70
2022/02/16 07:00:17;;;;;;;;;;;;;;;;;;2211491;59;1217;-70
2022/02/16 07:02:50;;;;;;;;;;;;;;;;;;2211312;67;1115;-70
2022/02/16 07:05:23;;;;;;;;;;;;;;;;;;2212149;67;1273;-70
2022/02/16 07:07:57;;;;;;;;;;;;;;;;;;2211614;59;1922;-70
2022/02/16 07:10:30;;;;;;;;;;;;;;;;;;2211578;59;1934;-70
2022/02/16 07:13:07;;;;;;;;;;;;;;;;;;2210923;67;1132;-70
2022/02/16 07:15:43;;;;;;;;;;;;;;;;;;2211152;67;1102;-70
2022/02/16 07:18:17;;;;;;;;;;;;;;;;;;2212213;59;1591;-70
2022/02/16 07:20:50;;;;;;;;;;;;;;;;;;2212712;59;1374;-70
2022/02/16 07:23:26;;;;;;;;;;;;;;;;;;2211815;59;1232;-70
2022/02/16 07:26:00;;;;;;;;;;;;;;;;;;2212574;59;1108;-70
2022/02/16 07:28:36;;;;;;;;;;;;;;;;;;2212293;59;1715;-70
2022/02/16 07:31:09;;;;;;;;;;;;;;;;;;2211586;59;1976;-70
2022/02/16 07:33:42;;;;;;;;;;;;;;;;;;2212193;66;1192;-69
2022/02/16 07:36:16;;;;;;;;;;;;;;;;;;2212605;67;1294;-70
2022/02/16 07:38:49;;;;;;;;;;;;;;;;;;2211852;59;1575;-70
2022/02/16 07:41:23;;;;;;;;;;;;;;;;;;2211972;59;1304;-70
2022/02/16 07:43:59;;;;;;;;;;;;;;;;;;2211750;59;1420;-70
2022/02/16 07:46:32;;;;;;;;;;;;;;;;;;2211654;59;1639;-70
2022/02/16 07:49:06;;;;;;;;;;;;;;;;;;2211662;59;1459;-70
2022/02/16 07:51:39;;;;;;;;;;;;;;;;;;2212283;67;1996;-70
2022/02/16 07:54:12;;;;;;;;;;;;;;;;;;2212450;67;1269;-70
2022/02/16 07:56:47;;;;;;;;;;;;;;;;;;2212015;59;1592;-69
2022/02/16 07:59:23;;;;;;;;;;;;;;;;;;2213992;67;1219;-70
2022/02/16 08:01:57;;;;;;;;;;;;;;;;;;2212403;59;1714;-70
2022/02/16 08:04:30;;;;;;;;;;;;;;;;;;2211538;67;1313;-70
2022/02/16 08:07:04;;;;;;;;;;;;;;;;;;2212347;59;1876;-70
2022/02/16 08:09:37;;;;;;;;;;;;;;;;;;2211160;59;1254;-70
2022/02/16 08:12:17;;;;;;;;;;;;;;;;;;2212105;59;1946;-70
2022/02/16 08:14:53;;;;;;;;;;;;;;;;;;2211749;67;1085;-70
2022/02/16 08:17:26;;;;;;;;;;;;;;;;;;2213171;59;1350;-70
2022/02/16 08:19:59;;;;;;;;;;;;;;;;;;2212149;59;1364;-70
2022/02/16 08:22:33;;;;;;;;;;;;;;;;;;2212812;59;1791;-70
2022/02/16 08:25:08;;;;;;;;;;;;;;;;;;2211531;59;1593;-70
2022/02/16 08:27:41;;;;;;;;;;;;;;;;;;2211031;59;1677;-70
2022/02/16 08:30:18;;;;;;;;;;;;;;;;;;2211481;67;1928;-70
2022/02/16 08:32:52;;;;;;;;;;;;;;;;;;2208577;67;1861;-70
2022/02/16 08:35:26;;;;;;;;;;;;;;;;;;2212216;67;1245;-70
2022/02/16 08:37:59;;;;;;;;;;;;;;;;;;2212292;67;1217;-70
2022/02/16 08:40:33;;;;;;;;;;;;;;;;;;2212290;59;1260;-70
2022/02/16 08:43:06;;;;;;;;;;;;;;;;;;2212450;59;1334;-70
2022/02/16 08:45:42;;;;;;;;;;;;;;;;;;2211638;67;1369;-70
2022/02/16 08:48:15;;;;;;;;;;;;;;;;;;2207115;59;1935;-70
2022/02/16 08:50:49;;;;;;;;;;;;;;;;;;2211262;67;1976;-70
2022/02/16 08:53:22;;;;;;;;;;;;;;;;;;2210983;67;1178;-70
2022/02/16 08:55:56;;;;;;;;;;;;;;;;;;2212691;59;1203;-70
2022/02/16 08:58:29;;;;;;;;;;;;;;;;;;2212812;67;1319;-69
2022/02/16 09:01:05;;;;;;;;;;;;;;;;;;2213294;67;1168;-69
2022/02/16 09:03:39;;;;;;;;;;;;;;;;;;2212136;67;1144;-70
2022/02/16 09:06:12;;;;;;;;;;;;;;;;;;2211452;67;1145;-69
2022/02/16 09:08:46;;;;;;;;;;;;;;;;;;2210660;59;2037;-69
2022/02/16 09:11:19;;;;;;;;;;;;;;;;;;2210807;59;1941;-69
2022/02/16 09:13:52;;;;;;;;;;;;;;;;;;2211412;59;1129;-69
2022/02/16 09:16:28;;;;;;;;;;;;;;;;;;2211785;59;1385;-69
2022/02/16 09:19:02;;;;;;;;;;;;;;;;;;2212207;67;1168;-69
2022/02/16 09:21:35;;;;;;;;;;;;;;;;;;2210893;59;1800;-69
2022/02/16 09:24:09;;;;;;;;;;;;;;;;;;2212037;67;1134;-69
2022/02/16 09:26:44;;;;;;;;;;;;;;;;;;2211274;59;1745;-69
2022/02/16 09:29:17;;;;;;;;;;;;;;;;;;2205902;67;1075;-69
2022/02/16 09:31:54;;;;;;;;;;;;;;;;;;2211072;67;1933;-69
2022/02/16 09:34:27;;;;;;;;;;;;;;;;;;2211906;67;1236;-69
2022/02/16 09:37:02;;;;;;;;;;;;;;;;;;2212568;59;1206;-69
2022/02/16 09:39:35;;;;;;;;;;;;;;;;;;2211939;59;1299;-69
2022/02/16 09:42:08;;;;;;;;;;;;;;;;;;2211784;59;1235;-69
2022/02/16 09:44:46;;;;;;;;;;;;;;;;;;2212136;67;1143;-69
2022/02/16 09:47:22;;;;;;;;;;;;;;;;;;2210924;59;1690;-69
2022/02/16 09:49:56;;;;;;;;;;;;;;;;;;2210692;67;1616;-69
2022/02/16 09:52:29;;;;;;;;;;;;;;;;;;2211893;67;1937;-69
2022/02/16 09:55:03;;;;;;;;;;;;;;;;;;2212026;59;1211;-69
2022/02/16 09:57:36;;;;;;;;;;;;;;;;;;2212533;67;1294;-68
2022/02/16 10:00:12;;;;;;;;;;;;;;;;;;2211383;67;1211;-69
2022/02/16 10:02:48;;;;;;;;;;;;;;;;;;2212242;59;1154;-69
2022/02/16 10:05:22;;;;;;;;;;;;;;;;;;2211232;59;1168;-69
2022/02/16 10:07:55;;;;;;;;;;;;;;;;;;2211424;59;1774;-69
2022/02/16 10:10:29;;;;;;;;;;;;;;;;;;2210520;59;1370;-69
2022/02/16 10:13:04;;;;;;;;;;;;;;;;;;2211620;67;1160;-69
2022/02/16 10:15:45;;;;;;;;;;;;;;;;;;2211481;67;1098;-70
2022/02/16 10:18:23;;;;;;;;;;;;;;;;;;2212581;59;1250;-69
2022/02/16 10:21:07;;;;;;;;;;;;;;;;;;2211392;59;2134;-69
2022/02/16 10:23:44;;;;;;;;;;;;;;;;;;2212165;59;1628;-69
2022/02/16 10:26:17;;;;;;;;;;;;;;;;;;2212329;59;1318;-69
2022/02/16 10:28:54;;;;;;;;;;;;;;;;;;2212923;53;3693;-69
2022/02/16 10:31:27;;;;;;;;;;;;;;;;;;2213074;59;1937;-69
2022/02/16 10:34:06;;;;;;;;;;;;;;;;;;2215107;59;1120;-69
2022/02/16 10:36:39;;;;;;;;;;;;;;;;;;2215256;59;1186;-69
2022/02/16 10:39:13;;;;;;;;;;;;;;;;;;2214659;67;1278;-69
2022/02/16 10:41:47;;;;;;;;;;;;;;;;;;2215525;59;1245;-69
2022/02/16 10:44:21;;;;;;;;;;;;;;;;;;2214083;59;1428;-69
2022/02/16 10:47:01;;;;;;;;;;;;;;;;;;2215164;67;1237;-69
2022/02/16 10:49:38;;;;;;;;;;;;;;;;;;2214895;59;1565;-69
2022/02/16 10:52:13;;;;;;;;;;;;;;;;;;2215068;66;1925;-69
2022/02/16 10:54:53;;;;;;;;;;;;;;;;;;2215669;67;1146;-69
2022/02/16 10:57:27;;;;;;;;;;;;;;;;;;2214695;59;1410;-69
2022/02/16 11:00:00;;;;;;;;;;;;;;;;;;2215538;59;1099;-69
2022/02/16 11:02:36;;;;;;;;;;;;;;;;;;2214420;59;1274;-69
2022/02/16 11:05:12;;;;;;;;;;;;;;;;;;2215029;59;1151;-69
2022/02/16 11:07:46;;;;;;;;;;;;;;;;;;2214970;59;1652;-69
2022/02/16 11:10:22;;;;;;;;;;;;;;;;;;2215112;59;1316;-69
2022/02/16 11:12:55;;;;;;;;;;;;;;;;;;2213997;59;1933;-69
2022/02/16 11:15:29;;;;;;;;;;;;;;;;;;2214282;66;1200;-69
2022/02/16 11:18:12;;;;;;;;;;;;;;;;;;2215313;59;1352;-69
2022/02/16 11:21:06;;;;;;;;;;;;;;;;;;2217217;59;1514;-69
2022/02/16 11:23:42;;;;;;;;;;;;;;;;;;2214610;59;1599;-70
2022/02/16 11:26:33;;;;;;;;;;;;;;;;;;2214385;59;1123;-69
2022/02/16 11:29:09;;;;;;;;;;;;;;;;;;2213990;59;1712;-69
2022/02/16 11:31:42;;;;;;;;;;;;;;;;;;2214376;59;1914;-69
2022/02/16 11:34:16;;;;;;;;;;;;;;;;;;2214595;59;1600;-69
2022/02/16 11:36:54;;;;;;;;;;;;;;;;;;2215483;67;1103;-69
2022/02/16 11:39:44;;;;;;;;;;;;;;;;;;2215611;66;1204;-70
2022/02/16 11:42:18;;;;;;;;;;;;;;;;;;2214393;66;1178;-69
2022/02/16 11:45:05;;;;;;;;;;;;;;;;;;2213456;59;1526;-70
2022/02/16 11:47:51;;;;;;;;;;;;;;;;;;2213567;59;1406;-69
2022/02/16 11:50:39;;;;;;;;;;;;;;;;;;2213776;59;1823;-69
2022/02/16 11:53:16;;;;;;;;;;;;;;;;;;2214517;59;1944;-70
2022/02/16 11:55:49;;;;;;;;;;;;;;;;;;2214517;67;1095;-69
2022/02/16 11:58:24;;;;;;;;;;;;;;;;;;2214413;67;1220;-70
2022/02/16 12:00:58;;;;;;;;;;;;;;;;;;2214822;59;1211;-69
2022/02/16 12:03:36;;;;;;;;;;;;;;;;;;2214614;59;1303;-70
2022/02/16 12:06:11;;;;;;;;;;;;;;;;;;2214683;59;1273;-70
2022/02/16 12:09:03;;;;;;;;;;;;;;;;;;2212314;59;1716;-70
2022/02/16 12:11:40;;;;;;;;;;;;;;;;;;2214187;59;1996;-69
2022/02/16 12:14:15;;;;;;;;;;;;;;;;;;2214469;59;1183;-69
2022/02/16 12:16:53;;;;;;;;;;;;;;;;;;2215057;59;1387;-70
2022/02/16 12:19:26;;;;;;;;;;;;;;;;;;2214357;59;1165;-69
2022/02/16 12:21:59;;;;;;;;;;;;;;;;;;2214881;59;1463;-69
2022/02/16 12:24:32;;;;;;;;;;;;;;;;;;2213838;59;1261;-70
2022/02/16 12:27:10;;;;;;;;;;;;;;;;;;2214700;59;1894;-69
2022/02/16 12:29:44;;;;;;;;;;;;;;;;;;2214131;67;1187;-69
2022/02/16 12:32:19;;;;;;;;;;;;;;;;;;2214454;59;1929;-70
2022/02/16 12:34:52;;;;;;;;;;;;;;;;;;2214415;66;1143;-70
2022/02/16 12:37:26;;;;;;;;;;;;;;;;;;2214501;59;1193;-69
2022/02/16 12:40:00;;;;;;;;;;;;;;;;;;2214047;59;1246;-70
2022/02/16 12:42:42;;;;;;;;;;;;;;;;;;2214916;59;1538;-69
2022/02/16 12:45:20;;;;;;;;;;;;;;;;;;2214024;59;1145;-69
2022/02/16 12:47:58;;;;;;;;;;;;;;;;;;2214271;59;1687;-70
2022/02/16 12:50:31;;;;;;;;;;;;;;;;;;2214140;67;1153;-69
2022/02/16 12:53:04;;;;;;;;;;;;;;;;;;2214520;59;1925;-69
2022/02/16 12:55:41;;;;;;;;;;;;;;;;;;2212500;59;1580;-70
2022/02/16 12:58:17;;;;;;;;;;;;;;;;;;2213882;67;1241;-69
2022/02/16 13:00:52;;;;;;;;;;;;;;;;;;2213991;59;1108;-70
2022/02/16 13:03:26;;;;;;;;;;;;;;;;;;2214574;66;1246;-70
2022/02/16 13:06:00;;;;;;;;;;;;;;;;;;2213765;59;2065;-70
2022/02/16 13:08:33;;;;;;;;;;;;;;;;;;2213347;59;1740;-69
2022/02/16 13:11:06;;;;;;;;;;;;;;;;;;2214508;67;1107;-70
2022/02/16 13:13:42;;;;;;;;;;;;;;;;;;2213298;59;1933;-70
2022/02/16 13:16:21;;;;;;;;;;;;;;;;;;2214767;59;1284;-69
2022/02/16 13:18:55;;;;;;;;;;;;;;;;;;2214250;59;1203;-69
2022/02/16 13:21:28;;;;;;;;;;;;;;;;;;2214587;59;1438;-70
2022/02/16 13:24:05;;;;;;;;;;;;;;;;;;2214324;59;1108;-70
2022/02/16 13:26:39;;;;;;;;;;;;;;;;;;2214602;67;1234;-70
2022/02/16 13:29:17;;;;;;;;;;;;;;;;;;2213104;59;1911;-70
2022/02/16 13:31:50;;;;;;;;;;;;;;;;;;2213859;59;1929;-70
2022/02/16 13:34:23;;;;;;;;;;;;;;;;;;2214385;59;1199;-71
2022/02/16 13:37:08;;;;;;;;;;;;;;;;;;2214389;67;1184;-70
2022/02/16 13:39:41;;;;;;;;;;;;;;;;;;2214395;67;1223;-70
2022/02/16 13:42:17;;;;;;;;;;;;;;;;;;2213196;66;1188;-69
2022/02/16 13:44:56;;;;;;;;;;;;;;;;;;2214264;59;1461;-70
2022/02/16 13:47:29;;;;;;;;;;;;;;;;;;2214471;59;1821;-70
2022/02/16 13:50:03;;;;;;;;;;;;;;;;;;2214519;59;1498;-69
2022/02/16 13:52:38;;;;;;;;;;;;;;;;;;2214410;59;1931;-70
2022/02/16 13:55:11;;;;;;;;;;;;;;;;;;2214374;67;1146;-70
2022/02/16 13:57:44;;;;;;;;;;;;;;;;;;2213639;67;1477;-69
2022/02/16 14:00:22;;;;;;;;;;;;;;;;;;2213751;59;1175;-70
2022/02/16 14:03:05;;;;;;;;;;;;;;;;;;2214034;67;1163;-69
2022/02/16 14:05:39;;;;;;;;;;;;;;;;;;2213556;59;1376;-70
2022/02/16 14:08:12;;;;;;;;;;;;;;;;;;2213121;59;1811;-70
2022/02/16 14:10:45;;;;;;;;;;;;;;;;;;2213492;59;1177;-69
2022/02/16 14:13:18;;;;;;;;;;;;;;;;;;2214003;67;2003;-69
2022/02/16 14:15:55;;;;;;;;;;;;;;;;;;2213853;67;3126;-70
2022/02/16 14:18:29;;;;;;;;;;;;;;;;;;2213753;59;1579;-70
2022/02/16 14:21:03;;;;;;;;;;;;;;;;;;2213839;59;1921;-70
2022/02/16 14:23:38;;;;;;;;;;;;;;;;;;2213919;59;1382;-70
2022/02/16 14:26:11;;;;;;;;;;;;;;;;;;2214463;66;1171;-69
2022/02/16 14:28:44;;;;;;;;;;;;;;;;;;2212580;59;1812;-70
2022/02/16 14:31:20;;;;;;;;;;;;;;;;;;2213966;59;1196;-70
2022/02/16 14:33:53;;;;;;;;;;;;;;;;;;2214078;67;1949;-69
2022/02/16 14:36:26;;;;;;;;;;;;;;;;;;2214277;59;1139;-70
2022/02/16 14:38:59;;;;;;;;;;;;;;;;;;2213656;59;1234;-69
2022/02/16 14:41:32;;;;;;;;;;;;;;;;;;2213665;59;1294;-70
2022/02/16 14:44:06;;;;;;;;;;;;;;;;;;2214015;59;1147;-70
2022/02/16 14:46:43;;;;;;;;;;;;;;;;;;2213760;59;1400;-70
2022/02/16 14:49:16;;;;;;;;;;;;;;;;;;2213437;59;1652;-70
2022/02/16 14:51:52;;;;;;;;;;;;;;;;;;2214245;67;1052;-70
2022/02/16 14:54:28;;;;;;;;;;;;;;;;;;2213676;59;1986;-70
2022/02/16 14:57:02;;;;;;;;;;;;;;;;;;2213395;59;1297;-69
2022/02/16 14:59:35;;;;;;;;;;;;;;;;;;2214494;66;1237;-70
2022/02/16 15:02:11;;;;;;;;;;;;;;;;;;2213459;67;1501;-70
2022/02/16 15:04:44;;;;;;;;;;;;;;;;;;2214555;67;1093;-69
2022/02/16 15:07:18;;;;;;;;;;;;;;;;;;2213856;59;1738;-69
2022/02/16 15:09:51;;;;;;;;;;;;;;;;;;2214082;67;1111;-70
2022/02/16 15:12:24;;;;;;;;;;;;;;;;;;2213670;59;1973;-70
2022/02/16 15:14:57;;;;;;;;;;;;;;;;;;2213707;66;1164;-69
2022/02/16 15:17:33;;;;;;;;;;;;;;;;;;2213941;59;1293;-70
2022/02/16 15:20:07;;;;;;;;;;;;;;;;;;2214867;59;1348;-69
2022/02/16 15:22:40;;;;;;;;;;;;;;;;;;2214789;59;1466;-69
2022/02/16 15:25:14;;;;;;;;;;;;;;;;;;2213934;67;1300;-70
2022/02/16 15:27:47;;;;;;;;;;;;;;;;;;2214398;59;1753;-69
2022/02/16 15:30:20;;;;;;;;;;;;;;;;;;2213928;59;1217;-71
2022/02/16 15:32:56;;;;;;;;;;;;;;;;;;2214171;67;1935;-69
2022/02/16 15:35:29;;;;;;;;;;;;;;;;;;2215018;66;1237;-70
2022/02/16 15:38:02;;;;;;;;;;;;;;;;;;2214160;59;1335;-70
2022/02/16 15:40:36;;;;;;;;;;;;;;;;;;2215027;66;1312;-70
2022/02/16 15:43:09;;;;;;;;;;;;;;;;;;2214768;59;1147;-69
2022/02/16 15:45:43;;;;;;;;;;;;;;;;;;2214599;59;1681;-69
2022/02/16 15:48:19;;;;;;;;;;;;;;;;;;2213522;59;1549;-69
2022/02/16 15:50:52;;;;;;;;;;;;;;;;;;2214854;66;1140;-70
2022/02/16 15:53:25;;;;;;;;;;;;;;;;;;2213876;59;1979;-70
2022/02/16 15:55:58;;;;;;;;;;;;;;;;;;2214607;59;1169;-69
2022/02/16 15:58:31;;;;;;;;;;;;;;;;;;2214930;66;1293;-69
2022/02/16 16:01:04;;;;;;;;;;;;;;;;;;2214298;59;1097;-70
2022/02/16 16:03:41;;;;;;;;;;;;;;;;;;2213697;67;1185;-70
2022/02/16 16:06:14;;;;;;;;;;;;;;;;;;2213893;59;1289;-69
2022/02/16 16:08:47;;;;;;;;;;;;;;;;;;2213203;59;1903;-70
2022/02/16 16:11:20;;;;;;;;;;;;;;;;;;2213623;59;1383;-70
2022/02/16 16:13:54;;;;;;;;;;;;;;;;;;2214512;67;1991;-70
2022/02/16 16:16:27;;;;;;;;;;;;;;;;;;2214330;66;1325;-70
2022/02/16 16:19:04;;;;;;;;;;;;;;;;;;2214742;66;1294;-70
2022/02/16 16:21:37;;;;;;;;;;;;;;;;;;2214802;59;1369;-70
2022/02/16 16:24:10;;;;;;;;;;;;;;;;;;2214375;59;1340;-69
2022/02/16 16:26:43;;;;;;;;;;;;;;;;;;2214635;59;1206;-69
2022/02/16 16:29:18;;;;;;;;;;;;;;;;;;2210714;53;3575;-72
2022/02/16 16:31:51;;;;;;;;;;;;;;;;;;2207869;59;1855;-72
2022/02/16 16:34:27;;;;;;;;;;;;;;;;;;2210177;67;1988;-72
2022/02/16 16:37:01;;;;;;;;;;;;;;;;;;2209431;59;1123;-72
2022/02/16 16:39:34;;;;;;;;;;;;;;;;;;2210913;59;1348;-72
2022/02/16 16:42:08;;;;;;;;;;;;;;;;;;2209596;67;1120;-73
2022/02/16 16:44:41;;;;;;;;;;;;;;;;;;2209737;59;1372;-72
2022/02/16 16:47:14;;;;;;;;;;;;;;;;;;2208465;59;1251;-72
2022/02/16 16:49:50;;;;;;;;;;;;;;;;;;2209244;59;1666;-72
2022/02/16 16:52:23;;;;;;;;;;;;;;;;;;2208601;59;1173;-72
2022/02/16 16:54:56;;;;;;;;;;;;;;;;;;2210129;59;1931;-72
2022/02/16 16:57:29;;;;;;;;;;;;;;;;;;2209912;59;1274;-72
2022/02/16 17:00:02;;;;;;;;;;;;;;;;;;2210003;67;1134;-72
2022/02/16 17:02:35;;;;;;;;;;;;;;;;;;2211597;59;1208;-72
2022/02/16 17:05:11;;;;;;;;;;;;;;;;;;2209951;59;1068;-72
2022/02/16 17:07:45;;;;;;;;;;;;;;;;;;2210172;67;1631;-73
2022/02/16 17:10:18;;;;;;;;;;;;;;;;;;2209933;59;1599;-72
2022/02/16 17:12:51;;;;;;;;;;;;;;;;;;2208499;59;1134;-73
2022/02/16 17:15:25;;;;;;;;;;;;;;;;;;2209506;59;1937;-72
2022/02/16 17:17:58;;;;;;;;;;;;;;;;;;2210361;59;1233;-72
2022/02/16 17:20:34;;;;;;;;;;;;;;;;;;2210074;59;1446;-72
2022/02/16 17:23:07;;;;;;;;;;;;;;;;;;2208675;59;1462;-72
2022/02/16 17:25:41;;;;;;;;;;;;;;;;;;2210200;67;1100;-72
2022/02/16 17:28:14;;;;;;;;;;;;;;;;;;2209073;59;1631;-72
2022/02/16 17:30:47;;;;;;;;;;;;;;;;;;2209013;59;1557;-72
2022/02/16 17:33:20;;;;;;;;;;;;;;;;;;2209468;59;1941;-72
2022/02/16 17:35:56;;;;;;;;;;;;;;;;;;2209656;67;1122;-72
2022/02/16 17:38:29;;;;;;;;;;;;;;;;;;2210269;59;1293;-72
2022/02/16 17:41:02;;;;;;;;;;;;;;;;;;2209360;59;1534;-72
2022/02/16 17:43:35;;;;;;;;;;;;;;;;;;2209060;59;1222;-72
2022/02/16 17:46:09;;;;;;;;;;;;;;;;;;2209992;59;1177;-72
2022/02/16 17:48:42;;;;;;;;;;;;;;;;;;2209100;59;1742;-72
2022/02/16 17:51:17;;;;;;;;;;;;;;;;;;2209159;67;1283;-73
2022/02/16 17:53:51;;;;;;;;;;;;;;;;;;2208984;67;1941;-72
2022/02/16 17:56:25;;;;;;;;;;;;;;;;;;2210262;59;1191;-72